Time;durP1;ratioP1;P1;durP2;ratioP2;P2;SDS_P1;SDS_P2;PMS_P1;PMS_P2;Temp;Humidity;BMP_temperature;BMP_pressure;BME280_temperature;BME280_humidity;BME280_pressure;Samples;Min_cycle;Max_cycle;Signal;HPM_P1;HPM_P2
2022/07/12 00:01:02;;;;;;;9.90;6.47;;;;;;;14.13;91.76;102409.66;6126026;23;20009;-79
2022/07/12 00:03:28;;;;;;;8.52;5.65;;;;;;;14.18;91.81;102421.50;6126194;23;20006;-74
2022/07/12 00:05:54;;;;;;;10.43;6.30;;;;;;;14.06;92.04;102403.97;6126457;23;20006;-74
2022/07/12 00:08:19;;;;;;;10.73;7.03;;;;;;;14.09;91.98;102418.56;6126105;23;20425;-77
2022/07/12 00:10:44;;;;;;;10.82;7.07;;;;;;;14.07;92.43;102414.28;6126005;23;20002;-74
2022/07/12 00:13:10;;;;;;;15.13;6.93;;;;;;;14.06;92.16;102402.22;6125747;23;20084;-76
2022/07/12 00:15:36;;;;;;;10.38;6.85;;;;;;;14.05;92.19;102416.09;6125611;23;20085;-72
2022/07/12 00:18:01;;;;;;;10.13;7.43;;;;;;;14.02;92.42;102416.25;6126117;23;20002;-73
2022/07/12 00:20:26;;;;;;;11.90;7.22;;;;;;;14.02;92.30;102413.66;6126291;23;20009;-75
2022/07/12 00:22:52;;;;;;;12.65;7.80;;;;;;;14.01;92.50;102403.34;6126276;23;20033;-74
2022/07/12 00:25:17;;;;;;;10.80;7.55;;;;;;;13.96;92.42;102401.00;6125987;23;20076;-79
2022/07/12 00:27:42;;;;;;;14.70;9.07;;;;;;;13.86;92.97;102399.78;6126160;23;20010;-74
2022/07/12 00:30:08;;;;;;;10.20;8.48;;;;;;;13.90;92.61;102409.13;6125734;23;20325;-73
2022/07/12 00:32:34;;;;;;;11.43;8.32;;;;;;;13.83;92.87;102399.94;6125487;23;20010;-75
2022/07/12 00:34:59;;;;;;;11.95;8.55;;;;;;;13.84;93.09;102406.81;6125570;23;20010;-73
2022/07/12 00:37:25;;;;;;;13.13;8.27;;;;;;;13.75;93.14;102392.53;6124185;23;20017;-74
2022/07/12 00:39:51;;;;;;;9.57;7.75;;;;;;;13.73;93.31;102390.97;6126155;23;20013;-74
2022/07/12 00:42:16;;;;;;;11.80;8.05;;;;;;;13.78;93.33;102394.16;6125770;23;20002;-75
2022/07/12 00:44:42;;;;;;;13.60;9.77;;;;;;;13.77;93.27;102395.09;6125630;23;20002;-74
2022/07/12 00:47:07;;;;;;;12.63;9.63;;;;;;;13.64;93.44;102378.44;6125853;23;20085;-75
2022/07/12 00:49:32;;;;;;;13.93;10.27;;;;;;;13.55;93.37;102376.31;6125327;23;20006;-75
2022/07/12 00:51:58;;;;;;;12.43;9.18;;;;;;;13.67;93.42;102394.72;6126099;23;20002;-75
2022/07/12 00:54:23;;;;;;;22.45;9.75;;;;;;;13.61;93.60;102395.03;6126093;23;20060;-73
2022/07/12 00:56:49;;;;;;;12.75;9.85;;;;;;;13.65;93.53;102391.34;6126009;23;20010;-73
2022/07/12 00:59:14;;;;;;;11.80;9.00;;;;;;;13.69;93.64;102399.84;6125607;23;20006;-75
2022/07/12 01:01:41;;;;;;;13.25;9.52;;;;;;;13.67;93.65;102399.06;6125561;23;20037;-74
2022/07/12 01:04:07;;;;;;;13.50;9.80;;;;;;;13.50;93.88;102379.16;6125618;23;20002;-74
2022/07/12 01:06:33;;;;;;;11.27;9.00;;;;;;;13.54;93.94;102388.44;6125612;23;20035;-73
2022/07/12 01:08:58;;;;;;;14.48;9.80;;;;;;;13.55;93.94;102391.88;6125865;23;20076;-74
2022/07/12 01:11:25;;;;;;;14.82;10.73;;;;;;;13.59;94.20;102409.00;6125733;23;20006;-73
2022/07/12 01:13:52;;;;;;;13.52;9.85;;;;;;;13.56;94.33;102402.19;6126108;23;20010;-74
2022/07/12 01:16:19;;;;;;;13.73;10.60;;;;;;;13.48;94.18;102391.38;6125426;23;20393;-74
2022/07/12 01:18:44;;;;;;;13.35;10.13;;;;;;;13.51;94.35;102400.75;6125715;23;20060;-73
2022/07/12 01:21:12;;;;;;;12.43;9.88;;;;;;;13.48;94.04;102412.13;6125499;23;20519;-74
2022/07/12 01:23:39;;;;;;;14.02;9.75;;;;;;;13.43;94.17;102411.50;6126139;23;20010;-75
2022/07/12 01:26:04;;;;;;;12.80;9.88;;;;;;;13.42;94.54;102415.03;6127699;23;20021;-77
2022/07/12 01:28:30;;;;;;;12.43;9.80;;;;;;;13.39;94.42;102415.19;6127622;23;20424;-74
2022/07/12 01:30:55;;;;;;;12.20;9.45;;;;;;;13.38;94.29;102422.13;6127360;23;20362;-73
2022/07/12 01:33:21;;;;;;;13.98;9.52;;;;;;;13.20;94.47;102407.47;6127510;23;19998;-74
2022/07/12 01:35:47;;;;;;;11.68;9.25;;;;;;;13.33;94.28;102423.25;6127278;23;20089;-73
2022/07/12 01:38:12;;;;;;;13.45;10.50;;;;;;;13.29;94.52;102425.19;6127502;23;20009;-75
2022/07/12 01:40:38;;;;;;;12.32;9.30;;;;;;;13.09;94.42;102404.53;6127496;23;20428;-79
2022/07/12 01:43:04;;;;;;;12.85;10.23;;;;;;;13.09;94.79;102404.53;6127403;23;20006;-74
2022/07/12 01:45:29;;;;;;;13.60;9.73;;;;;;;13.23;94.51;102430.66;6127226;23;20006;-74
2022/07/12 01:47:58;;;;;;;13.50;9.43;;;;;;;13.21;94.34;102424.72;6127140;23;20417;-73
2022/07/12 01:50:24;;;;;;;12.88;9.10;;;;;;;13.15;94.66;102432.75;6127440;23;20033;-73
2022/07/12 01:52:49;;;;;;;11.27;8.55;;;;;;;12.90;94.82;102392.44;6127685;23;20017;-74
2022/07/12 01:55:15;;;;;;;12.55;8.90;;;;;;;12.89;95.04;102401.13;6100477;23;20017;-73
2022/07/12 01:57:41;;;;;;;11.15;7.43;;;;;;;13.00;95.05;102429.16;6127053;23;20038;-73
2022/07/12 02:00:07;;;;;;;10.95;7.97;;;;;;;12.90;95.13;102409.75;6127490;23;20029;-75
2022/07/12 02:02:34;;;;;;;10.82;7.65;;;;;;;12.95;94.88;102417.28;6127312;23;20010;-73
2022/07/12 02:05:03;;;;;;;11.65;7.80;;;;;;;12.70;95.03;102383.94;6127184;23;20006;-78
2022/07/12 02:07:30;;;;;;;13.93;8.20;;;;;;;12.86;95.02;102415.97;6127148;23;20017;-73
2022/07/12 02:09:56;;;;;;;12.13;9.45;;;;;;;12.78;95.06;102410.31;6127186;23;20041;-73
2022/07/12 02:12:21;;;;;;;13.95;9.10;;;;;;;12.82;95.35;102414.44;6127576;23;20006;-74
2022/07/12 02:14:47;;;;;;;11.55;8.90;;;;;;;12.73;95.56;102410.53;6127057;23;20078;-75
2022/07/12 02:17:12;;;;;;;12.95;9.40;;;;;;;12.77;95.40;102406.03;6127019;23;20085;-73
2022/07/12 02:19:37;;;;;;;10.27;7.93;;;;;;;12.58;94.96;102380.97;6126949;23;20416;-75
2022/07/12 02:22:03;;;;;;;13.32;8.63;;;;;;;12.68;95.34;102407.31;6126899;23;20006;-73
2022/07/12 02:24:28;;;;;;;13.38;9.23;;;;;;;12.64;95.29;102409.22;6126964;23;20029;-76
2022/07/12 02:26:54;;;;;;;11.38;8.65;;;;;;;12.62;95.29;102407.59;6127061;23;20313;-74
2022/07/12 02:29:20;;;;;;;11.45;8.15;;;;;;;12.59;95.11;102411.19;6127008;23;20002;-78
2022/07/12 02:31:45;;;;;;;11.05;8.32;;;;;;;12.58;95.19;102412.06;6127158;23;20009;-75
2022/07/12 02:34:10;;;;;;;13.38;9.23;;;;;;;12.57;94.94;102402.63;6126992;23;20006;-73
2022/07/12 02:36:35;;;;;;;13.23;9.45;;;;;;;12.47;95.18;102391.00;6126298;23;20032;-73
2022/07/12 02:39:03;;;;;;;13.07;9.45;;;;;;;12.51;95.06;102399.50;6127258;23;20006;-73
2022/07/12 02:41:29;;;;;;;12.60;9.25;;;;;;;12.40;95.12;102392.22;6126829;23;20002;-74
2022/07/12 02:43:55;;;;;;;12.07;8.90;;;;;;;12.30;95.12;102385.78;6127311;23;20375;-73
2022/07/12 02:46:20;;;;;;;13.45;9.30;;;;;;;12.35;95.06;102391.56;6126760;23;20014;-74
2022/07/12 02:48:46;;;;;;;13.30;9.10;;;;;;;12.45;95.00;102405.78;6126546;23;20006;-73
2022/07/12 02:51:11;;;;;;;12.95;9.63;;;;;;;12.45;95.18;102405.78;6127136;23;20013;-75
2022/07/12 02:53:37;;;;;;;12.50;9.02;;;;;;;12.34;94.81;102401.09;6126621;23;20010;-74
2022/07/12 02:56:03;;;;;;;13.55;10.50;;;;;;;12.42;94.94;102412.88;6126725;23;20009;-74
2022/07/12 02:58:28;;;;;;;13.75;10.43;;;;;;;12.26;95.38;102384.22;6100637;23;20013;-74
2022/07/12 03:00:55;;;;;;;13.45;10.20;;;;;;;12.26;95.14;102382.47;6126990;23;20005;-75
2022/07/12 03:03:20;;;;;;;16.45;10.55;;;;;;;12.29;95.44;102397.00;6126792;23;20005;-73
2022/07/12 03:05:46;;;;;;;14.80;10.63;;;;;;;12.21;95.52;102399.97;6126972;23;20073;-73
2022/07/12 03:08:12;;;;;;;14.32;10.82;;;;;;;12.32;95.85;102412.44;6126501;23;20006;-74
2022/07/12 03:10:38;;;;;;;15.68;10.95;;;;;;;12.12;95.74;102379.66;6126465;23;20487;-73
2022/07/12 03:13:03;;;;;;;14.52;10.73;;;;;;;12.29;95.75;102418.59;6126927;23;20073;-73
2022/07/12 03:15:30;;;;;;;16.00;11.07;;;;;;;12.27;95.80;102410.03;6126535;23;20081;-75
2022/07/12 03:17:56;;;;;;;14.45;11.07;;;;;;;12.25;95.88;102411.84;6126375;23;20499;-73
2022/07/12 03:20:22;;;;;;;15.73;11.75;;;;;;;12.23;95.77;102416.28;6126636;23;20006;-73
2022/07/12 03:22:50;;;;;;;16.13;12.10;;;;;;;12.19;96.38;102413.88;6126583;23;20010;-73
2022/07/12 03:25:16;;;;;;;14.32;11.05;;;;;;;12.24;96.67;102410.19;6126729;23;20006;-75
2022/07/12 03:27:42;;;;;;;14.82;11.55;;;;;;;12.16;96.52;102395.88;6126779;23;20010;-73
2022/07/12 03:30:08;;;;;;;14.30;11.10;;;;;;;12.13;96.52;102396.88;6126737;23;20444;-79
2022/07/12 03:32:34;;;;;;;21.30;11.57;;;;;;;12.23;96.16;102407.66;6126691;23;20008;-74
2022/07/12 03:34:59;;;;;;;19.52;12.95;;;;;;;12.24;96.54;102402.41;6126190;23;20088;-75
2022/07/12 03:37:25;;;;;;;15.75;12.43;;;;;;;12.22;96.21;102404.25;6126597;23;20042;-73
2022/07/12 03:39:50;;;;;;;15.70;11.48;;;;;;;12.20;96.27;102402.63;6126525;23;20002;-79
2022/07/12 03:42:15;;;;;;;15.25;11.90;;;;;;;11.91;96.30;102363.34;6126417;23;20422;-78
2022/07/12 03:44:41;;;;;;;15.07;11.07;;;;;;;12.01;96.34;102387.06;6126199;23;20010;-77
2022/07/12 03:47:06;;;;;;;13.93;10.90;;;;;;;12.18;96.44;102407.00;6126194;23;20034;-78
2022/07/12 03:49:31;;;;;;;15.82;11.48;;;;;;;12.12;95.96;102396.94;6126076;23;20002;-76
2022/07/12 03:51:57;;;;;;;15.52;11.20;;;;;;;12.24;96.11;102414.53;6100187;23;20002;-76
2022/07/12 03:54:22;;;;;;;16.65;11.65;;;;;;;12.15;95.80;102383.84;6126271;23;20073;-76
2022/07/12 03:59:32;;;;;;;17.33;11.32;;;;;;;12.34;95.85;102408.03;6126074;23;20021;-80
2022/07/12 04:01:57;;;;;;;16.38;12.05;;;;;;;12.38;95.59;102408.72;6126147;23;20006;-79
2022/07/12 04:04:23;;;;;;;20.25;14.45;;;;;;;12.42;95.78;102407.69;6126073;23;20072;-80
2022/07/12 04:06:48;;;;;;;20.83;15.00;;;;;;;12.43;96.26;102399.00;6125820;23;20073;-77
2022/07/12 04:09:13;;;;;;;23.10;14.77;;;;;;;12.42;96.58;102392.97;6126007;23;20005;-80
2022/07/12 04:11:39;;;;;;;20.48;14.27;;;;;;;12.39;96.38;102387.06;6126252;23;20006;-77
2022/07/12 04:14:04;;;;;;;21.33;15.32;;;;;;;12.47;96.33;102398.78;6126150;23;20317;-78
2022/07/12 04:16:30;;;;;;;17.85;13.70;;;;;;;12.52;96.45;102395.97;6126063;23;20005;-78
2022/07/12 04:18:55;;;;;;;19.67;13.98;;;;;;;12.51;96.28;102389.13;6125778;23;20002;-77
2022/07/12 04:21:21;;;;;;;19.35;14.48;;;;;;;12.57;96.51;102410.41;6125842;23;20013;-73
2022/07/12 04:23:46;;;;;;;18.33;13.55;;;;;;;12.62;95.96;102410.19;6126069;23;20010;-75
2022/07/12 04:26:12;;;;;;;20.52;14.25;;;;;;;12.64;95.93;102403.19;6126312;23;20006;-74
2022/07/12 04:28:37;;;;;;;20.95;14.95;;;;;;;12.72;96.12;102421.81;6125998;23;20002;-74
2022/07/12 04:31:03;;;;;;;22.48;15.10;;;;;;;12.60;96.05;102384.34;6125992;23;20329;-74
2022/07/12 04:33:28;;;;;;;19.98;15.35;;;;;;;12.83;95.25;102410.94;6125864;23;20404;-74
2022/07/12 04:35:54;;;;;;;19.25;14.68;;;;;;;13.11;95.10;102432.06;6125760;23;20013;-73
2022/07/12 04:38:20;;;;;;;22.00;14.70;;;;;;;13.63;94.22;102429.53;6126094;23;20412;-74
2022/07/12 04:40:45;;;;;;;19.55;13.45;;;;;;;14.78;89.02;102437.34;6125729;23;20077;-75
2022/07/12 04:43:11;;;;;;;18.63;13.00;;;;;;;15.59;84.34;102435.34;6125947;23;20065;-74
2022/07/12 04:45:36;;;;;;;17.00;13.63;;;;;;;15.68;84.96;102424.41;6099792;23;20093;-73
2022/07/12 04:48:01;;;;;;;19.20;14.05;;;;;;;15.31;84.67;102419.63;6125783;23;20006;-74
2022/07/12 04:50:27;;;;;;;16.27;12.98;;;;;;;15.09;85.12;102418.25;6125931;23;20077;-74
2022/07/12 04:52:52;;;;;;;19.85;13.98;;;;;;;14.97;86.23;102424.16;6114101;23;20084;-77
2022/07/12 04:55:17;;;;;;;17.20;12.60;;;;;;;14.93;86.87;102425.25;6126099;23;20103;-74
2022/07/12 04:57:43;;;;;;;19.60;14.75;;;;;;;15.10;86.94;102424.31;6125810;23;20080;-75
2022/07/12 05:00:09;;;;;;;20.05;15.55;;;;;;;15.24;87.32;102421.78;6125710;23;20484;-75
2022/07/12 05:02:34;;;;;;;18.40;14.70;;;;;;;15.28;87.49;102418.06;6125583;23;20002;-73
2022/07/12 05:05:00;;;;;;;19.85;14.27;;;;;;;15.07;87.40;102399.31;6125475;23;20002;-73
2022/07/12 05:07:25;;;;;;;22.25;16.92;;;;;;;15.32;89.01;102424.75;6125754;23;20005;-74
2022/07/12 05:09:51;;;;;;;21.10;17.65;;;;;;;16.39;88.49;102426.19;6125877;23;20017;-74
2022/07/12 05:12:20;;;;;;;17.83;12.63;;;;;;;18.78;79.12;102424.09;6125656;23;20006;-73
2022/07/12 05:14:45;;;;;;;18.27;12.35;;;;;;;20.68;70.03;102413.94;6125492;23;19997;-73
2022/07/12 05:17:11;;;;;;;14.32;12.32;;;;;;;22.32;65.01;102429.97;6125377;23;20077;-72
2022/07/12 05:19:39;;;;;;;17.45;10.80;;;;;;;23.57;60.21;102441.50;6125333;23;20081;-74
2022/07/12 05:22:04;;;;;;;15.45;11.82;;;;;;;24.38;56.32;102424.13;6125864;23;20337;-74
2022/07/12 05:24:30;;;;;;;12.98;10.48;;;;;;;25.31;53.29;102435.28;6125627;23;20013;-75
2022/07/12 05:26:56;;;;;;;18.50;11.73;;;;;;;25.92;51.42;102424.59;6125696;23;20049;-74
2022/07/12 05:29:21;;;;;;;18.05;10.43;;;;;;;26.67;50.07;102437.09;6125350;23;20089;-74
2022/07/12 05:31:47;;;;;;;18.30;11.98;;;;;;;27.04;48.30;102448.09;6125599;23;20053;-78
2022/07/12 05:34:12;;;;;;;12.73;9.23;;;;;;;27.66;46.87;102452.84;6125410;23;20317;-79
2022/07/12 05:36:38;;;;;;;17.73;11.07;;;;;;;27.81;46.43;102450.31;6125041;23;20018;-75
2022/07/12 05:39:03;;;;;;;13.02;9.43;;;;;;;27.59;46.41;102439.41;6125870;23;20052;-76
2022/07/12 05:41:29;;;;;;;14.73;11.02;;;;;;;27.60;46.53;102438.41;6125643;23;20036;-75
2022/07/12 05:43:54;;;;;;;17.67;13.25;;;;;;;28.15;46.05;102445.53;6124943;23;20013;-76
2022/07/12 05:46:19;;;;;;;16.38;14.07;;;;;;;29.16;43.49;102465.88;6126728;23;20443;-75
2022/07/12 05:48:45;;;;;;;16.20;14.18;;;;;;;29.76;42.61;102470.28;6125444;23;20324;-73
2022/07/12 05:53:54;;;;;;;16.75;14.60;;;;;;;29.90;41.29;102480.13;6125713;23;20025;-76
2022/07/12 05:56:20;;;;;;;15.20;13.65;;;;;;;29.98;41.26;102474.66;6125514;23;20002;-75
2022/07/12 05:58:45;;;;;;;15.52;13.93;;;;;;;29.27;42.29;102483.22;6125586;23;20024;-78
2022/07/12 06:01:10;;;;;;;17.05;15.23;;;;;;;28.26;44.36;102490.31;6125396;23;20413;-76
2022/07/12 06:03:36;;;;;;;17.02;15.13;;;;;;;27.79;45.32;102474.38;6125463;23;20060;-77
2022/07/12 06:06:01;;;;;;;17.08;15.27;;;;;;;27.47;46.20;102488.53;6125206;23;20010;-74
2022/07/12 06:08:27;;;;;;;16.63;14.98;;;;;;;27.87;46.13;102487.63;6125820;23;20328;-78
2022/07/12 06:10:53;;;;;;;16.67;14.98;;;;;;;28.26;45.29;102500.13;6126505;23;20006;-72
2022/07/12 06:13:18;;;;;;;17.77;15.10;;;;;;;28.44;44.94;102482.13;6127003;23;20017;-73
2022/07/12 06:15:43;;;;;;;17.75;15.70;;;;;;;28.49;44.26;102485.06;6126936;23;20359;-77
2022/07/12 06:18:09;;;;;;;18.10;14.80;;;;;;;28.88;43.87;102484.16;6127253;23;20002;-76
2022/07/12 06:20:34;;;;;;;15.88;14.32;;;;;;;29.08;42.73;102461.44;6127220;23;20006;-78
2022/07/12 06:22:59;;;;;;;19.35;16.13;;;;;;;29.03;43.86;102494.91;6127002;23;20009;-77
2022/07/12 06:25:25;;;;;;;17.80;15.30;;;;;;;29.10;42.63;102493.16;6127206;23;20002;-73
2022/07/12 06:27:50;;;;;;;16.77;15.13;;;;;;;28.60;43.65;102486.50;6100594;23;20009;-77
2022/07/12 06:30:17;;;;;;;17.90;16.02;;;;;;;28.47;44.38;102481.78;6126984;23;20010;-80
2022/07/12 06:32:46;;;;;;;20.42;16.27;;;;;;;28.14;45.30;102491.72;6126902;23;20056;-75
2022/07/12 06:35:12;;;;;;;18.73;16.20;;;;;;;27.98;45.05;102478.47;6126756;23;20010;-93
2022/07/12 06:37:38;;;;;;;20.10;17.05;;;;;;;28.55;44.88;102484.38;6126937;23;20009;-77
2022/07/12 06:40:03;;;;;;;19.00;17.08;;;;;;;28.95;43.86;102460.38;6126822;23;20006;-83
2022/07/12 06:42:29;;;;;;;21.27;16.85;;;;;;;28.76;44.27;102478.44;6100869;23;20088;-80
2022/07/12 06:44:54;;;;;;;19.08;16.98;;;;;;;28.73;43.35;102494.75;6127016;23;20013;-75
2022/07/12 06:47:20;;;;;;;19.17;17.10;;;;;;;28.91;43.91;102477.69;6126869;23;20009;-82
2022/07/12 06:49:45;;;;;;;20.30;16.80;;;;;;;29.81;43.13;102475.91;6127111;23;20044;-75
2022/07/12 06:52:11;;;;;;;18.48;16.55;;;;;;;30.24;41.16;102484.88;6101051;23;20073;-81
2022/07/12 06:54:36;;;;;;;22.65;16.75;;;;;;;30.51;41.06;102462.03;6126551;23;20447;-74
2022/07/12 06:57:01;;;;;;;20.02;15.52;;;;;;;31.16;39.35;102457.50;6126565;23;20017;-80
2022/07/12 06:59:27;;;;;;;18.50;15.95;;;;;;;31.54;38.15;102484.72;6126818;23;20006;-78
2022/07/12 07:01:55;;;;;;;20.63;14.68;;;;;;;31.73;37.74;102482.34;6127267;23;20012;-82
2022/07/12 07:04:20;;;;;;;17.90;14.30;;;;;;;32.13;37.60;102486.91;6126818;23;20006;-79
2022/07/12 07:06:46;;;;;;;15.63;13.25;;;;;;;32.31;36.10;102486.38;6126500;23;20061;-75
2022/07/12 07:09:11;;;;;;;20.85;14.25;;;;;;;32.03;37.43;102483.78;6126458;23;20009;-82
2022/07/12 07:11:36;;;;;;;17.23;13.95;;;;;;;31.95;37.06;102486.63;6126971;23;20006;-79
2022/07/12 07:14:02;;;;;;;17.83;15.32;;;;;;;31.93;38.49;102483.31;6126612;23;20072;-82
2022/07/12 07:16:28;;;;;;;18.27;14.43;;;;;;;31.97;37.16;102452.53;6126566;23;20009;-82
2022/07/12 07:18:53;;;;;;;17.92;14.27;;;;;;;32.10;36.88;102470.44;6126360;23;20348;-80
2022/07/12 07:21:19;;;;;;;16.00;13.38;;;;;;;32.28;36.62;102483.28;6126201;23;20006;-81
2022/07/12 07:23:44;;;;;;;13.55;12.15;;;;;;;32.54;37.22;102480.69;6126310;23;20036;-82
2022/07/12 07:26:09;;;;;;;17.27;13.35;;;;;;;32.59;36.15;102442.63;6126734;23;20010;-83
2022/07/12 07:30:51;;;;;;;18.58;14.18;;;;;;;32.76;36.05;102490.22;6126629;23;20002;-82
2022/07/12 07:31:20;;;;;;;16.45;14.18;;;;;;;32.91;35.06;102481.19;6126198;23;20014;-75
2022/07/12 07:33:46;;;;;;;17.30;14.40;;;;;;;33.06;35.01;102485.31;6126269;23;20089;-83
2022/07/12 07:36:11;;;;;;;15.73;13.20;;;;;;;33.16;34.41;102474.19;6125527;23;20045;-81
2022/07/12 07:38:37;;;;;;;16.52;13.07;;;;;;;32.92;36.48;102475.63;6126178;23;20014;-83
2022/07/12 07:41:02;;;;;;;16.38;13.68;;;;;;;32.31;35.91;102454.31;6126455;23;19998;-76
2022/07/12 07:43:27;;;;;;;15.50;13.90;;;;;;;31.75;36.03;102464.28;6100450;23;20332;-83
2022/07/12 07:45:53;;;;;;;16.38;13.52;;;;;;;30.70;38.56;102475.78;6126632;23;20006;-82
2022/07/12 07:48:18;;;;;;;15.55;12.65;;;;;;;29.78;40.51;102481.56;6126522;23;20077;-79
2022/07/12 07:50:44;;;;;;;15.85;13.35;;;;;;;28.68;42.25;102456.41;6126246;23;20357;-82
2022/07/12 07:53:09;;;;;;;16.77;13.13;;;;;;;27.96;44.51;102472.50;6126259;23;20006;-82
2022/07/12 07:55:34;;;;;;;17.17;13.20;;;;;;;27.32;44.79;102451.22;6126203;23;20085;-82
2022/07/12 07:58:00;;;;;;;15.13;12.95;;;;;;;26.98;46.50;102467.28;6125907;23;20006;-79
2022/07/12 08:00:26;;;;;;;17.50;13.57;;;;;;;26.65;46.64;102450.53;6126256;23;20002;-83
2022/07/12 08:02:51;;;;;;;18.55;15.07;;;;;;;26.58;48.10;102447.69;6126157;23;20052;-82
2022/07/12 08:05:17;;;;;;;17.33;13.77;;;;;;;26.77;48.11;102464.28;6126026;23;20080;-81
2022/07/12 08:07:42;;;;;;;16.38;12.98;;;;;;;26.63;48.69;102473.69;6126103;23;20064;-82
2022/07/12 08:10:08;;;;;;;17.17;14.30;;;;;;;26.49;48.38;102469.84;6125965;23;20024;-79
2022/07/12 08:12:34;;;;;;;15.85;13.23;;;;;;;26.48;49.56;102465.53;6126338;23;20109;-82
2022/07/12 08:14:59;;;;;;;16.30;13.27;;;;;;;26.54;49.17;102472.00;6126449;23;20306;-82
2022/07/12 08:17:24;;;;;;;17.17;12.20;;;;;;;26.57;49.10;102472.53;6125953;23;20380;-82
2022/07/12 08:19:50;;;;;;;17.20;13.30;;;;;;;26.57;49.00;102477.81;6125597;23;20009;-82
2022/07/12 08:22:15;;;;;;;20.95;14.73;;;;;;;26.44;48.74;102474.78;6125733;23;20030;-82
2022/07/12 08:24:40;;;;;;;17.23;14.88;;;;;;;26.40;49.03;102462.88;6125711;23;20013;-80
2022/07/12 08:27:06;;;;;;;17.83;14.38;;;;;;;26.43;49.69;102481.06;6125764;23;20005;-81
2022/07/12 08:29:31;;;;;;;18.50;13.80;;;;;;;26.51;49.41;102472.31;6126261;23;20013;-79
2022/07/12 08:31:56;;;;;;;18.85;14.10;;;;;;;26.36;48.23;102482.69;6125808;23;20005;-79
2022/07/12 08:34:22;;;;;;;16.50;14.52;;;;;;;26.39;49.07;102486.88;6125703;23;20013;-81
2022/07/12 08:36:47;;;;;;;20.33;14.32;;;;;;;26.33;49.43;102485.66;6125421;23;20014;-83
2022/07/12 08:39:12;;;;;;;20.13;14.32;;;;;;;26.31;50.14;102480.50;6125526;23;20476;-76
2022/07/12 08:41:38;;;;;;;17.38;13.07;;;;;;;26.25;48.52;102465.28;6125666;23;20424;-76
2022/07/12 08:44:03;;;;;;;18.25;13.52;;;;;;;26.20;48.59;102472.84;6125842;23;20005;-78
2022/07/12 08:46:30;;;;;;;17.52;14.25;;;;;;;26.19;50.09;102488.91;6126014;23;20081;-82
2022/07/12 08:48:55;;;;;;;17.55;13.43;;;;;;;26.09;49.70;102482.91;6099108;23;20005;-82
2022/07/12 08:51:22;;;;;;;17.73;12.38;;;;;;;25.70;49.36;102443.66;6125694;23;20010;-76
2022/07/12 08:53:50;;;;;;;16.00;11.38;;;;;;;25.75;49.53;102451.94;6125552;23;20006;-83
2022/07/12 08:56:37;;;;;;;16.88;13.30;;;;;;;26.03;50.01;102495.78;6125610;23;20337;-78
2022/07/12 08:59:28;;;;;;;16.15;11.52;;;;;;;25.86;50.22;102502.00;6126080;23;20427;-75
2022/07/12 09:01:54;;;;;;;19.05;13.43;;;;;;;25.70;48.92;102499.22;6119683;23;20014;-82
2022/07/12 09:04:22;;;;;;;15.68;11.30;;;;;;;25.63;50.06;102500.78;6125890;23;20005;-81
2022/07/12 09:06:48;;;;;;;17.80;12.55;;;;;;;25.41;50.89;102497.66;6125756;23;20025;-75
2022/07/12 09:09:29;;;;;;;16.27;11.32;;;;;;;25.39;51.34;102497.00;6125320;23;20320;-75
2022/07/12 09:11:54;;;;;;;17.33;10.88;;;;;;;25.38;50.54;102491.88;6099428;23;20010;-75
2022/07/12 09:14:20;;;;;;;16.40;13.25;;;;;;;25.37;50.52;102490.22;6125383;23;20328;-75
2022/07/12 09:17:03;;;;;;;15.35;13.15;;;;;;;25.22;50.38;102471.41;6125416;23;20001;-75
2022/07/12 09:19:29;;;;;;;16.83;10.57;;;;;;;25.44;51.79;102492.06;6125632;23;20104;-75
2022/07/12 09:21:55;;;;;;;15.43;10.35;;;;;;;25.51;51.00;102492.28;6125469;23;20029;-75
2022/07/12 09:24:24;;;;;;;14.65;12.38;;;;;;;25.34;51.96;102480.75;6125214;23;20002;-74
2022/07/12 09:26:53;;;;;;;18.63;11.93;;;;;;;25.44;51.39;102480.66;6125828;23;20005;-74
2022/07/12 09:29:20;;;;;;;16.95;11.85;;;;;;;25.39;51.02;102488.22;6125476;23;20306;-74
2022/07/12 09:37:27;;;;;;;19.80;12.30;;;;;;;25.64;49.45;102478.63;6064711;23;20123;-77
2022/07/12 09:39:54;;;;;;;13.20;11.30;;;;;;;25.58;49.90;102480.09;6064574;23;20011;-75
2022/07/12 09:42:19;;;;;;;14.82;10.98;;;;;;;25.63;51.52;102483.09;6064452;23;20095;-75
2022/07/12 09:44:45;;;;;;;10.75;9.00;;;;;;;25.58;50.69;102480.09;6065071;23;20095;-78
2022/07/12 09:47:13;;;;;;;14.63;10.60;;;;;;;25.53;50.47;102482.38;6066896;23;20011;-76
2022/07/12 09:49:43;;;;;;;15.93;11.05;;;;;;;25.45;50.84;102483.13;6066989;23;20014;-75
2022/07/12 09:52:22;;;;;;;15.63;11.75;;;;;;;25.44;51.91;102480.66;6066744;23;20029;-75
2022/07/12 09:54:50;;;;;;;11.80;9.73;;;;;;;25.49;50.47;102482.84;6066502;23;20010;-80
2022/07/12 09:57:29;;;;;;;14.90;10.98;;;;;;;25.60;52.23;102478.13;6066373;23;20026;-75
2022/07/12 09:59:57;;;;;;;17.92;14.18;;;;;;;25.37;51.25;102458.47;6066825;23;20146;-76
2022/07/12 10:02:23;;;;;;;21.73;11.85;;;;;;;25.44;53.19;102468.25;6066791;23;20026;-75
2022/07/12 10:04:48;;;;;;;13.93;11.80;;;;;;;25.54;53.04;102464.69;6066694;23;20127;-74
2022/07/12 10:07:15;;;;;;;12.70;10.02;;;;;;;25.64;51.20;102471.53;6066675;23;20434;-82
2022/07/12 10:09:42;;;;;;;18.05;11.00;;;;;;;25.57;51.19;102470.50;6066339;23;20010;-74
2022/07/12 10:12:10;;;;;;;12.43;9.93;;;;;;;25.55;52.85;102455.75;6041957;23;20326;-76
2022/07/12 10:14:37;;;;;;;14.45;8.93;;;;;;;25.81;52.47;102458.44;6106409;23;20328;-75
2022/07/12 10:17:09;;;;;;;11.90;9.38;;;;;;;25.79;50.26;102432.13;6127002;23;20085;-78
2022/07/12 10:19:35;;;;;;;14.43;9.30;;;;;;;25.88;51.44;102447.06;6125866;23;20352;-79
2022/07/12 10:22:06;;;;;;;13.73;10.80;;;;;;;25.87;51.05;102444.59;6127109;23;19998;-77
2022/07/12 10:24:47;;;;;;;14.68;9.90;;;;;;;26.03;51.27;102442.81;6126568;23;20002;-83
2022/07/12 10:27:13;;;;;;;12.93;10.60;;;;;;;26.10;52.51;102442.19;6126915;23;20009;-79
2022/07/12 10:29:38;;;;;;;11.93;9.18;;;;;;;26.16;52.32;102423.88;6100841;23;20002;-86
2022/07/12 10:32:25;;;;;;;15.15;11.57;;;;;;;26.51;51.92;102448.47;6126910;23;20002;-78
2022/07/12 10:35:01;;;;;;;17.10;11.02;;;;;;;26.64;51.42;102432.94;6123106;23;20014;-79
2022/07/12 10:37:28;;;;;;;12.13;10.00;;;;;;;26.80;49.11;102445.38;6126623;23;20339;-85
2022/07/12 10:40:12;;;;;;;16.15;9.85;;;;;;;26.85;49.64;102453.69;6126354;23;20037;-79
2022/07/12 10:42:38;;;;;;;10.95;7.00;;;;;;;26.78;47.98;102450.03;6126898;23;20081;-82
2022/07/12 10:45:15;;;;;;;10.20;6.55;;;;;;;26.68;49.24;102439.59;6127154;23;20468;-77
2022/07/12 10:48:13;;;;;;;10.10;7.22;;;;;;;26.87;49.12;102451.69;6126901;23;20013;-78
2022/07/12 10:50:55;;;;;;;10.18;8.05;;;;;;;26.82;47.99;102454.00;6063316;23;20014;-77
2022/07/12 10:53:34;;;;;;;11.32;8.25;;;;;;;26.85;49.52;102451.88;6065942;23;20395;-82
2022/07/12 10:56:18;;;;;;;10.50;7.45;;;;;;;27.06;50.50;102454.06;6065537;23;20337;-77
2022/07/12 10:58:54;;;;;;;11.20;6.60;;;;;;;27.11;48.26;102457.03;6065965;23;20010;-76
2022/07/12 11:01:27;;;;;;;9.82;6.20;;;;;;;27.23;47.93;102456.69;6066000;23;20007;-78
2022/07/12 11:04:04;;;;;;;9.05;5.60;;;;;;;27.37;47.80;102456.84;6065931;23;20093;-83
2022/07/12 11:06:29;;;;;;;11.13;5.97;;;;;;;27.49;46.37;102457.34;6065802;23;20010;-80
2022/07/12 11:09:04;;;;;;;8.60;4.90;;;;;;;27.64;47.14;102437.06;6065787;23;20131;-78
2022/07/12 11:11:41;;;;;;;7.75;4.50;;;;;;;27.74;44.97;102442.22;6066198;23;20341;-81
2022/07/12 11:14:06;;;;;;;11.77;5.00;;;;;;;27.95;44.82;102453.09;6066125;23;20346;-78
2022/07/12 11:16:32;;;;;;;10.27;6.18;;;;;;;28.09;45.14;102451.53;6065985;23;20007;-76
2022/07/12 11:18:58;;;;;;;7.47;5.40;;;;;;;28.24;44.04;102449.81;6065823;23;20079;-79
2022/07/12 11:21:24;;;;;;;7.32;4.70;;;;;;;28.28;43.11;102453.81;6065743;23;20214;-77